Time;durP1;ratioP1;P1;durP2;ratioP2;P2;SDS_P1;SDS_P2;PMS_P1;PMS_P2;Temp;Humidity;BMP_temperature;BMP_pressure;BME280_temperature;BME280_humidity;BME280_pressure;Samples;Min_cycle;Max_cycle;Signal;HPM_P1;HPM_P2
2022/01/06 00:02:15;;;;;;;19.10;4.03;;;;;;;2.20;94.11;101487.97;5048340;28;20053;-63
2022/01/06 00:04:41;;;;;;;23.47;4.60;;;;;;;2.21;94.31;101490.50;5057182;28;20043;-62
2022/01/06 00:07:07;;;;;;;23.33;4.53;;;;;;;2.21;94.16;101500.13;5051213;28;20098;-63
2022/01/06 00:09:32;;;;;;;22.60;4.77;;;;;;;2.22;94.47;101501.81;5053140;28;20041;-63
2022/01/06 00:11:57;;;;;;;25.70;4.57;;;;;;;2.16;94.11;101497.75;5053526;28;20028;-63
2022/01/06 00:14:54;;;;;;;18.40;4.50;;;;;;;2.14;94.25;101504.88;5050509;28;20457;-63
2022/01/06 00:17:36;;;;;;;19.70;4.37;;;;;;;2.12;94.08;101498.91;5054003;28;20464;-62
2022/01/06 00:23:22;;;;;;;26.47;4.97;;;;;;;2.09;93.88;101506.91;5044151;28;20051;-62
2022/01/06 00:25:48;;;;;;;22.53;4.70;;;;;;;2.01;93.49;101505.59;5044456;28;20081;-63
2022/01/06 00:28:14;;;;;;;22.47;4.67;;;;;;;1.91;93.75;101507.03;5049615;28;20423;-63
2022/01/06 00:30:39;;;;;;;23.27;4.87;;;;;;;1.86;94.39;101507.31;5053775;28;20029;-63
2022/01/06 00:33:04;;;;;;;22.33;4.30;;;;;;;1.86;94.74;101517.78;5052196;28;20103;-63
2022/01/06 00:35:30;;;;;;;20.47;4.83;;;;;;;1.90;94.89;101517.59;5051691;28;20040;-63
2022/01/06 00:37:55;;;;;;;21.13;4.00;;;;;;;1.88;94.54;101525.53;5051252;28;20056;-63
2022/01/06 00:40:21;;;;;;;21.53;4.23;;;;;;;1.85;94.99;101518.72;5051753;28;20025;-63
2022/01/06 00:42:46;;;;;;;20.60;4.60;;;;;;;1.84;94.45;101530.09;5050383;28;20052;-63
2022/01/06 00:45:11;;;;;;;23.43;4.63;;;;;;;1.82;94.67;101526.72;5052934;28;20210;-62
2022/01/06 00:47:36;;;;;;;22.10;4.43;;;;;;;1.81;94.65;101532.88;5052196;28;20460;-62
2022/01/06 00:50:03;;;;;;;23.57;4.90;;;;;;;1.77;94.64;101533.97;5042089;28;20037;-63
2022/01/06 00:52:28;;;;;;;23.07;4.40;;;;;;;1.78;94.82;101535.66;5053391;28;20043;-63
2022/01/06 00:54:54;;;;;;;21.13;4.60;;;;;;;1.77;94.85;101533.16;5051408;28;20033;-62
2022/01/06 00:57:19;;;;;;;21.80;4.70;;;;;;;1.76;94.84;101532.28;5040717;28;20055;-63
2022/01/06 00:59:44;;;;;;;24.37;4.60;;;;;;;1.76;94.79;101531.47;5046680;28;20139;-63
2022/01/06 01:02:09;;;;;;;20.87;4.47;;;;;;;1.75;95.15;101528.00;5049755;28;20033;-63
2022/01/06 01:04:35;;;;;;;23.10;4.77;;;;;;;1.71;94.53;101534.31;5049423;28;20037;-63
2022/01/06 01:07:00;;;;;;;24.47;5.17;;;;;;;1.71;94.55;101529.94;5050531;28;20033;-62
2022/01/06 01:09:25;;;;;;;23.27;4.53;;;;;;;1.71;94.71;101534.31;5048956;28;20028;-63
2022/01/06 01:11:51;;;;;;;20.57;4.87;;;;;;;1.69;94.30;101530.97;5046814;28;20083;-63
2022/01/06 01:14:18;;;;;;;24.37;4.30;;;;;;;1.68;94.90;101540.56;5049125;28;20035;-63
2022/01/06 01:16:53;;;;;;;23.93;4.70;;;;;;;1.70;94.24;101540.50;5048117;28;20032;-63
2022/01/06 01:19:19;;;;;;;23.33;4.30;;;;;;;1.68;94.25;101534.50;5046911;28;20726;-63
2022/01/06 01:21:45;;;;;;;18.57;4.00;;;;;;;1.63;94.30;101537.38;5051107;28;20028;-63
2022/01/06 01:24:10;;;;;;;22.23;4.37;;;;;;;1.62;94.40;101535.69;5051920;28;20075;-62
2022/01/06 01:26:36;;;;;;;23.50;4.33;;;;;;;1.59;94.31;101538.47;5052032;28;20029;-63
2022/01/06 01:29:01;;;;;;;23.93;4.27;;;;;;;1.61;94.50;101539.22;5052313;28;20017;-63
2022/01/06 01:31:31;;;;;;;21.53;4.67;;;;;;;1.61;94.31;101541.84;5045617;28;20056;-62
2022/01/06 01:33:59;;;;;;;23.07;4.40;;;;;;;1.60;94.34;101542.78;5048707;28;20037;-63
2022/01/06 01:36:25;;;;;;;27.33;4.47;;;;;;;1.61;94.19;101544.47;5052901;28;20025;-62
2022/01/06 01:38:50;;;;;;;21.53;4.53;;;;;;;1.62;94.49;101551.38;5048931;28;20053;-63
2022/01/06 01:41:16;;;;;;;21.43;4.20;;;;;;;1.59;94.12;101551.56;5053720;28;20102;-62
2022/01/06 01:43:42;;;;;;;20.30;4.23;;;;;;;1.55;94.20;101555.25;5050650;28;20083;-63
2022/01/06 01:46:16;;;;;;;19.37;4.30;;;;;;;1.55;94.45;101555.25;5052531;28;20025;-63
2022/01/06 01:48:48;;;;;;;26.80;4.30;;;;;;;1.52;94.24;101560.66;5051996;28;20437;-63
2022/01/06 01:51:14;;;;;;;26.40;4.77;;;;;;;1.54;94.56;101564.03;5052376;28;20056;-62
2022/01/06 01:53:39;;;;;;;21.00;4.20;;;;;;;1.54;94.32;101574.50;5047124;28;20053;-63
2022/01/06 01:56:06;;;;;;;22.20;4.57;;;;;;;1.54;94.24;101584.94;5050720;28;20044;-63
2022/01/06 01:58:33;;;;;;;25.53;4.37;;;;;;;1.54;93.86;101588.41;5050863;28;20110;-63
2022/01/06 02:00:58;;;;;;;19.60;4.17;;;;;;;1.53;93.94;101591.09;5041746;28;20068;-62
2022/01/06 02:03:24;;;;;;;22.67;4.13;;;;;;;1.56;94.08;101593.53;5051924;28;20488;-63
2022/01/06 02:05:49;;;;;;;24.37;4.33;;;;;;;1.52;93.67;101592.03;5050134;28;20037;-63
2022/01/06 02:08:14;;;;;;;21.83;4.37;;;;;;;1.52;93.99;101599.88;5051560;28;20500;-62
2022/01/06 02:10:40;;;;;;;22.23;4.40;;;;;;;1.47;93.64;101590.50;5032161;28;20054;-62
2022/01/06 02:13:05;;;;;;;21.93;4.13;;;;;;;1.43;93.71;101594.22;5047733;28;20386;-63
2022/01/06 02:15:31;;;;;;;18.70;3.90;;;;;;;1.37;93.90;101597.16;5047289;28;20063;-63
2022/01/06 02:17:56;;;;;;;21.27;3.90;;;;;;;1.33;93.36;101593.03;5050821;28;20083;-63
2022/01/06 02:20:22;;;;;;;19.33;4.07;;;;;;;1.30;93.88;101590.56;5052331;28;20037;-63
2022/01/06 02:22:49;;;;;;;23.33;4.40;;;;;;;1.29;93.64;101596.72;5050131;28;20029;-63
2022/01/06 02:25:18;;;;;;;24.80;4.30;;;;;;;1.27;93.93;101593.34;5041388;28;20029;-63
2022/01/06 02:27:46;;;;;;;26.07;4.33;;;;;;;1.27;94.05;101588.09;5046895;28;20387;-63
2022/01/06 02:30:12;;;;;;;22.93;4.50;;;;;;;1.32;94.10;101604.38;5051656;28;20120;-62
2022/01/06 02:32:38;;;;;;;26.27;4.50;;;;;;;1.32;93.87;101599.16;5049875;28;20108;-62
2022/01/06 02:35:07;;;;;;;18.70;4.20;;;;;;;1.32;94.00;101601.78;5051689;28;20116;-62
2022/01/06 02:37:32;;;;;;;24.43;4.70;;;;;;;1.34;93.73;101605.16;5049480;28;20075;-63
2022/01/06 02:39:57;;;;;;;23.80;4.33;;;;;;;1.33;94.20;101608.72;5053040;28;20029;-63
2022/01/06 02:42:23;;;;;;;22.33;4.10;;;;;;;1.33;93.73;101608.72;5048104;28;20029;-62
2022/01/06 02:44:49;;;;;;;21.33;4.00;;;;;;;1.32;93.89;101602.63;5048015;28;20154;-63
2022/01/06 02:47:14;;;;;;;22.47;4.40;;;;;;;1.30;93.69;101603.63;5055776;28;20029;-63
2022/01/06 02:49:39;;;;;;;16.93;3.90;;;;;;;1.27;94.11;101601.19;5038628;28;20021;-63
2022/01/06 02:52:05;;;;;;;21.17;4.00;;;;;;;1.21;93.87;101602.34;5047243;28;20673;-63
2022/01/06 02:54:30;;;;;;;23.07;3.80;;;;;;;1.13;93.10;101602.75;5047538;28;20058;-62
2022/01/06 02:56:56;;;;;;;20.10;4.47;;;;;;;1.03;93.46;101606.81;5042343;28;20037;-62
2022/01/06 02:59:22;;;;;;;21.47;4.30;;;;;;;0.97;93.31;101602.72;5051870;28;20472;-63
2022/01/06 03:01:47;;;;;;;24.77;4.40;;;;;;;0.93;93.48;101609.03;5048645;28;20036;-63
2022/01/06 03:04:13;;;;;;;22.87;4.07;;;;;;;0.90;93.67;101604.78;5051064;28;20404;-62
2022/01/06 03:06:39;;;;;;;19.47;4.20;;;;;;;0.87;93.86;101602.34;5048407;28;20036;-63
2022/01/06 03:09:06;;;;;;;22.07;3.83;;;;;;;0.86;93.73;101605.91;5047671;28;20029;-62
2022/01/06 03:11:33;;;;;;;17.77;3.80;;;;;;;0.81;93.74;101607.91;5047233;28;20085;-63
2022/01/06 03:13:59;;;;;;;21.13;4.80;;;;;;;0.80;93.83;101611.44;5036758;28;20017;-63
2022/01/06 03:16:25;;;;;;;27.87;5.10;;;;;;;0.83;94.01;101615.66;5051787;28;20032;-62
2022/01/06 03:18:50;;;;;;;19.10;4.47;;;;;;;0.82;93.99;101613.94;5045145;28;20029;-62
2022/01/06 03:21:15;;;;;;;22.27;4.20;;;;;;;0.84;94.28;101619.97;5050772;28;20056;-63
2022/01/06 03:23:41;;;;;;;25.03;4.60;;;;;;;0.82;93.58;101620.03;5040615;28;20024;-62
2022/01/06 03:26:06;;;;;;;19.90;4.33;;;;;;;0.82;93.95;101625.25;5051335;28;20029;-63
2022/01/06 03:28:32;;;;;;;21.53;4.20;;;;;;;0.80;93.82;101627.94;5046876;28;20036;-62
2022/01/06 03:30:57;;;;;;;20.70;4.37;;;;;;;0.76;93.56;101630.78;5050457;28;20029;-62
2022/01/06 03:33:23;;;;;;;23.17;4.53;;;;;;;0.78;92.91;101634.16;5047595;28;20033;-62
2022/01/06 03:35:48;;;;;;;23.83;4.60;;;;;;;0.76;93.19;101639.47;5048766;28;20033;-62
2022/01/06 03:38:13;;;;;;;18.13;3.93;;;;;;;0.70;93.37;101642.41;5043872;28;20566;-62
2022/01/06 03:40:40;;;;;;;21.47;4.13;;;;;;;0.78;93.38;101639.38;5050857;28;20047;-62
2022/01/06 03:43:06;;;;;;;24.33;4.37;;;;;;;0.78;93.63;101645.44;5046106;28;20029;-63
2022/01/06 03:45:32;;;;;;;22.50;4.10;;;;;;;0.79;94.01;101641.09;5046916;28;20032;-63
2022/01/06 03:47:58;;;;;;;21.13;4.20;;;;;;;0.79;94.52;101646.31;5046501;28;20151;-62
2022/01/06 03:50:23;;;;;;;23.10;4.17;;;;;;;0.77;94.31;101650.75;5044475;28;20476;-62
2022/01/06 03:52:49;;;;;;;26.10;4.13;;;;;;;0.78;94.01;101650.69;5046593;28;20081;-62
2022/01/06 03:55:16;;;;;;;24.03;4.27;;;;;;;0.84;93.73;101643.47;5046908;28;20025;-62
2022/01/06 03:57:42;;;;;;;27.27;4.40;;;;;;;0.87;93.28;101644.13;5048552;28;20086;-62
2022/01/06 04:00:10;;;;;;;24.47;4.33;;;;;;;0.79;93.83;101638.47;5052132;28;20025;-62
2022/01/06 04:02:36;;;;;;;19.53;3.77;;;;;;;0.80;94.30;101642.78;5045186;28;20049;-62
2022/01/06 04:05:03;;;;;;;23.83;4.10;;;;;;;0.76;94.27;101630.78;5049308;28;20055;-62
2022/01/06 04:07:29;;;;;;;20.00;3.90;;;;;;;0.78;94.37;101635.00;5043287;28;20688;-62
2022/01/06 04:09:54;;;;;;;20.87;4.07;;;;;;;0.80;94.32;101634.94;5050875;28;20063;-62
2022/01/06 04:12:19;;;;;;;22.87;4.20;;;;;;;0.82;94.64;101640.06;5048975;28;20365;-61
2022/01/06 04:14:44;;;;;;;25.50;4.40;;;;;;;0.84;94.67;101646.91;5051016;28;20021;-63
2022/01/06 04:17:10;;;;;;;29.67;4.80;;;;;;;0.86;94.49;101641.59;5048978;28;20056;-62
2022/01/06 04:19:36;;;;;;;26.73;4.17;;;;;;;0.86;94.47;101647.69;5047398;28;20062;-62
2022/01/06 04:22:03;;;;;;;19.60;3.40;;;;;;;0.85;94.41;101656.44;5050146;28;20034;-62
2022/01/06 04:24:28;;;;;;;20.97;3.43;;;;;;;0.85;93.89;101666.88;5047324;28;20035;-62
2022/01/06 04:26:53;;;;;;;23.80;4.07;;;;;;;0.85;93.20;101669.50;5047978;28;20033;-62
2022/01/06 04:29:18;;;;;;;14.23;3.53;;;;;;;0.77;93.31;101662.03;5040920;28;20092;-62
2022/01/06 04:31:44;;;;;;;22.93;3.93;;;;;;;0.74;93.55;101664.78;5049239;28;20036;-62
2022/01/06 04:34:09;;;;;;;21.47;3.93;;;;;;;0.66;93.69;101670.41;5047432;28;20066;-62
2022/01/06 04:36:34;;;;;;;24.13;4.23;;;;;;;0.64;94.18;101663.59;5048381;28;20083;-62
2022/01/06 04:38:59;;;;;;;25.53;4.30;;;;;;;0.62;94.13;101661.03;5047027;28;20033;-62
2022/01/06 04:41:25;;;;;;;20.27;3.87;;;;;;;0.64;94.52;101663.59;5051015;28;20029;-62
2022/01/06 04:43:50;;;;;;;20.40;4.47;;;;;;;0.65;93.99;101671.31;5045420;28;20498;-63
2022/01/06 04:46:15;;;;;;;24.00;4.00;;;;;;;0.66;94.72;101678.25;5050570;28;20389;-62
2022/01/06 04:48:41;;;;;;;27.43;4.20;;;;;;;0.62;94.44;101676.72;5049182;28;20049;-63
2022/01/06 04:51:07;;;;;;;21.27;3.87;;;;;;;0.59;93.76;101682.06;5043982;28;20112;-62
2022/01/06 04:53:33;;;;;;;23.13;3.67;;;;;;;0.56;93.92;101677.00;5046918;28;20100;-62
2022/01/06 04:55:59;;;;;;;20.63;4.13;;;;;;;0.51;94.14;101682.47;5043836;28;20135;-63
2022/01/06 04:58:25;;;;;;;21.70;4.03;;;;;;;0.50;94.51;101682.53;5051297;28;20033;-62
2022/01/06 05:00:50;;;;;;;24.17;3.80;;;;;;;0.52;94.87;101678.94;5039223;28;20025;-62
2022/01/06 05:03:16;;;;;;;22.30;3.70;;;;;;;0.56;94.80;101682.22;5049329;28;20123;-62
2022/01/06 05:05:41;;;;;;;23.70;3.90;;;;;;;0.58;94.99;101684.78;5052862;28;20040;-62
2022/01/06 05:08:06;;;;;;;19.37;3.90;;;;;;;0.57;94.63;101694.34;5045352;28;20045;-62
2022/01/06 05:10:32;;;;;;;20.50;3.90;;;;;;;0.58;94.63;101690.00;5051635;28;20049;-62
2022/01/06 05:12:57;;;;;;;24.27;3.93;;;;;;;0.57;94.51;101694.34;5051535;28;20037;-62
2022/01/06 05:15:22;;;;;;;20.17;4.23;;;;;;;0.59;94.67;101697.72;5044445;28;20420;-62
2022/01/06 05:17:48;;;;;;;25.93;3.90;;;;;;;0.60;94.39;101699.41;5048352;28;20064;-62
2022/01/06 05:20:13;;;;;;;18.47;3.80;;;;;;;0.59;94.37;101708.16;5052622;28;20400;-62
2022/01/06 05:22:44;;;;;;;27.83;4.40;;;;;;;0.60;94.65;101699.41;5049646;28;20020;-62
2022/01/06 05:25:11;;;;;;;23.20;4.20;;;;;;;0.60;94.45;101699.41;5044452;28;20060;-62
2022/01/06 05:27:36;;;;;;;26.83;4.67;;;;;;;0.60;94.55;101704.63;5051607;28;20023;-62
2022/01/06 05:30:01;;;;;;;23.60;4.23;;;;;;;0.61;94.56;101701.13;5041506;28;20411;-62
2022/01/06 05:32:27;;;;;;;20.90;4.20;;;;;;;0.62;94.38;101708.03;5047417;28;20033;-63
2022/01/06 05:34:52;;;;;;;25.97;4.03;;;;;;;0.62;94.27;101713.25;5049878;28;20086;-62
2022/01/06 05:37:18;;;;;;;16.97;4.07;;;;;;;0.60;94.06;101717.69;5046778;28;20060;-62
2022/01/06 05:39:43;;;;;;;25.50;4.70;;;;;;;0.60;93.81;101724.69;5045916;28;20029;-62
2022/01/06 05:42:08;;;;;;;18.87;3.90;;;;;;;0.57;94.14;101725.69;5052077;28;20036;-62
2022/01/06 05:44:34;;;;;;;20.10;3.90;;;;;;;0.52;93.76;101740.72;5049856;28;20024;-62
2022/01/06 05:47:00;;;;;;;18.53;4.00;;;;;;;0.50;93.80;101727.72;5049859;28;20035;-62
2022/01/06 05:49:26;;;;;;;18.23;4.00;;;;;;;0.50;94.30;101732.94;5044742;28;20570;-62
2022/01/06 05:51:51;;;;;;;20.03;4.10;;;;;;;0.53;94.25;101726.75;5052542;28;20097;-62
2022/01/06 05:54:16;;;;;;;19.70;3.93;;;;;;;0.52;93.85;101735.50;5045952;28;20060;-62
2022/01/06 05:56:41;;;;;;;18.50;4.40;;;;;;;0.48;93.35;101737.41;5055994;28;20036;-62
2022/01/06 05:59:07;;;;;;;26.20;4.63;;;;;;;0.50;93.74;101739.94;5057492;28;20056;-62
2022/01/06 06:01:32;;;;;;;21.47;3.93;;;;;;;0.50;93.66;101745.16;5050694;28;20128;-62
2022/01/06 06:03:57;;;;;;;18.03;3.87;;;;;;;0.49;93.63;101743.47;5037011;28;20053;-63
2022/01/06 06:06:22;;;;;;;20.60;4.23;;;;;;;0.48;93.91;101752.22;5049313;28;20473;-62
2022/01/06 06:08:48;;;;;;;17.53;3.90;;;;;;;0.45;94.10;101752.38;5045453;28;20112;-62
2022/01/06 06:11:13;;;;;;;21.57;4.27;;;;;;;0.46;93.60;101756.66;5050850;28;20087;-62
2022/01/06 06:13:38;;;;;;;21.17;4.43;;;;;;;0.45;93.47;101761.03;5048713;28;20041;-62
2022/01/06 06:16:04;;;;;;;19.63;4.07;;;;;;;0.43;94.14;101764.66;5047942;28;20061;-58
2022/01/06 06:18:29;;;;;;;18.50;4.27;;;;;;;0.41;94.09;101767.31;5047881;28;20037;-58
2022/01/06 06:20:54;;;;;;;21.60;4.53;;;;;;;0.42;94.24;101768.16;5052349;28;20029;-62
2022/01/06 06:23:19;;;;;;;22.50;4.30;;;;;;;0.42;94.44;101768.16;5043874;28;20060;-62
2022/01/06 06:25:45;;;;;;;24.43;4.20;;;;;;;0.40;94.18;101766.47;5036680;28;20591;-63
2022/01/06 06:28:10;;;;;;;18.53;4.03;;;;;;;0.36;94.32;101767.56;5044325;28;20107;-63
2022/01/06 06:30:36;;;;;;;20.40;3.90;;;;;;;0.35;94.36;101768.44;5037717;28;20039;-62
2022/01/06 06:33:01;;;;;;;17.47;3.80;;;;;;;0.33;94.19;101772.91;5039919;28;20059;-63
2022/01/06 06:35:28;;;;;;;23.40;4.77;;;;;;;0.30;93.85;101780.84;5040297;28;20029;-63
2022/01/06 06:37:53;;;;;;;21.07;4.40;;;;;;;0.30;94.26;101783.47;5038569;28;20029;-59
2022/01/06 06:40:22;;;;;;;18.63;4.53;;;;;;;0.29;94.56;101784.38;5041892;28;20095;-58
2022/01/06 06:42:47;;;;;;;18.87;3.97;;;;;;;0.30;94.40;101777.41;5045530;28;20029;-59
2022/01/06 06:45:12;;;;;;;20.97;4.50;;;;;;;0.29;94.38;101773.94;5040508;28;20403;-59
2022/01/06 06:47:38;;;;;;;17.67;4.63;;;;;;;0.29;94.17;101779.16;5041106;28;20074;-58
2022/01/06 06:50:04;;;;;;;21.83;4.87;;;;;;;0.26;94.90;101793.19;5041540;28;20026;-58
2022/01/06 06:52:29;;;;;;;20.23;4.63;;;;;;;0.23;93.69;101789.88;5041218;28;20046;-58
2022/01/06 06:54:54;;;;;;;23.83;4.83;;;;;;;0.21;94.06;101791.72;5040299;28;20541;-58
2022/01/06 06:57:20;;;;;;;20.90;4.73;;;;;;;0.20;93.98;101795.25;5040987;28;20234;-58
2022/01/06 06:59:45;;;;;;;21.73;4.67;;;;;;;0.17;94.35;101800.59;5040164;28;20034;-59
2022/01/06 07:02:10;;;;;;;23.13;5.03;;;;;;;0.13;94.30;101799.91;5041755;28;20021;-59
2022/01/06 07:04:36;;;;;;;17.70;4.87;;;;;;;0.10;94.07;101795.66;5040135;28;20029;-58
2022/01/06 07:07:01;;;;;;;21.80;4.60;;;;;;;0.11;94.12;101804.34;5039618;28;20479;-58
2022/01/06 07:09:26;;;;;;;17.73;4.83;;;;;;;0.09;94.20;101814.84;5039529;28;20029;-59
2022/01/06 07:11:51;;;;;;;19.67;4.47;;;;;;;0.11;94.34;101812.16;5042526;28;20046;-58
2022/01/06 07:14:17;;;;;;;20.37;4.50;;;;;;;0.08;94.22;101813.16;5039021;28;20033;-58
2022/01/06 07:16:42;;;;;;;21.93;4.60;;;;;;;0.11;94.38;101823.44;5040988;28;20025;-59
2022/01/06 07:19:07;;;;;;;21.03;4.83;;;;;;;0.12;94.42;101825.16;5034081;28;20065;-58
2022/01/06 07:21:32;;;;;;;23.93;5.00;;;;;;;0.13;94.43;101826.84;5035933;28;20037;-58
2022/01/06 07:23:58;;;;;;;18.73;4.30;;;;;;;0.11;94.02;101833.88;5031457;28;20405;-58
2022/01/06 07:26:23;;;;;;;22.57;5.10;;;;;;;0.08;94.55;101841.84;5033864;28;20095;-58
2022/01/06 07:28:48;;;;;;;21.83;5.10;;;;;;;0.10;94.27;101841.78;5033542;28;20496;-58
2022/01/06 07:31:13;;;;;;;21.80;5.00;;;;;;;0.05;94.00;101839.34;5040533;28;20040;-62
2022/01/06 07:33:39;;;;;;;22.40;5.30;;;;;;;0.06;94.52;101838.47;5044481;28;20039;-62
2022/01/06 07:36:04;;;;;;;18.93;5.10;;;;;;;0.09;94.83;101851.34;5036400;28;20504;-62
2022/01/06 07:38:30;;;;;;;26.50;5.10;;;;;;;0.10;94.50;101847.84;5039502;28;20107;-62
2022/01/06 07:40:55;;;;;;;19.53;5.13;;;;;;;0.09;94.24;101840.94;5044861;28;20148;-62
2022/01/06 07:43:21;;;;;;;24.10;5.17;;;;;;;0.11;94.32;101843.47;5037455;28;20034;-63
2022/01/06 07:45:46;;;;;;;22.37;5.13;;;;;;;0.11;94.62;101844.31;5042116;28;20119;-63
2022/01/06 07:48:17;;;;;;;23.07;5.10;;;;;;;0.11;94.67;101849.53;5047021;28;20583;-63
2022/01/06 07:50:43;;;;;;;28.97;4.83;;;;;;;0.12;94.06;101850.38;5040782;28;20037;-63
2022/01/06 07:53:09;;;;;;;23.40;4.80;;;;;;;0.15;94.39;101844.19;5034162;28;20056;-62
2022/01/06 07:55:34;;;;;;;24.20;5.13;;;;;;;0.13;94.31;101847.72;5032232;28;20065;-63
2022/01/06 07:58:00;;;;;;;22.80;5.20;;;;;;;0.09;94.58;101855.72;5032006;28;20033;-63
2022/01/06 08:00:26;;;;;;;21.07;4.57;;;;;;;0.09;94.39;101856.56;5034800;28;20033;-62
2022/01/06 08:02:51;;;;;;;19.73;4.60;;;;;;;0.07;94.89;101842.78;5040114;28;20540;-63
2022/01/06 08:05:19;;;;;;;22.30;5.30;;;;;;;0.08;95.04;101854.88;5047946;28;20037;-62
2022/01/06 08:07:44;;;;;;;25.30;5.00;;;;;;;0.06;94.75;101851.50;5040267;28;20056;-63
2022/01/06 08:10:10;;;;;;;24.07;4.93;;;;;;;0.07;94.53;101857.56;5045999;28;20396;-63
2022/01/06 08:12:36;;;;;;;18.97;4.57;;;;;;;0.05;94.63;101857.63;5038361;28;20029;-63
2022/01/06 08:15:01;;;;;;;21.93;4.67;;;;;;;0.06;94.73;101864.56;5047846;28;20032;-63
2022/01/06 08:17:27;;;;;;;20.67;4.80;;;;;;;0.07;94.28;101861.03;5043560;28;20488;-63
2022/01/06 08:19:52;;;;;;;19.33;4.93;;;;;;;0.09;94.99;101869.63;5045991;28;20036;-62
2022/01/06 08:22:21;;;;;;;21.13;5.63;;;;;;;0.09;94.94;101867.00;5048403;28;20064;-63
2022/01/06 08:24:46;;;;;;;24.80;5.40;;;;;;;0.11;94.58;101870.38;5048717;28;20029;-63
2022/01/06 08:27:12;;;;;;;27.63;6.63;;;;;;;0.16;94.77;101869.34;5043359;28;20069;-63
2022/01/06 08:29:39;;;;;;;19.23;6.40;;;;;;;0.18;94.58;101870.13;5049707;28;20086;-63
2022/01/06 08:32:05;;;;;;;22.33;6.00;;;;;;;0.16;94.79;101872.81;5049706;28;20060;-63
2022/01/06 08:34:30;;;;;;;23.67;6.67;;;;;;;0.19;94.81;101871.84;5041698;28;20072;-63
2022/01/06 08:36:55;;;;;;;21.20;6.90;;;;;;;0.23;95.22;101873.38;5046264;28;20041;-63
2022/01/06 08:39:21;;;;;;;24.73;7.33;;;;;;;0.25;94.67;101871.56;5044716;28;20055;-62
2022/01/06 08:41:48;;;;;;;26.40;7.20;;;;;;;0.27;94.81;101869.72;5042125;28;20041;-63
2022/01/06 08:44:13;;;;;;;26.77;7.50;;;;;;;0.30;94.50;101874.78;5045495;28;20499;-63
2022/01/06 08:46:38;;;;;;;25.37;7.27;;;;;;;0.33;95.06;101874.66;5045671;28;20121;-63
2022/01/06 08:49:06;;;;;;;27.30;7.47;;;;;;;0.37;95.16;101875.38;5042724;28;20288;-63
2022/01/06 08:51:32;;;;;;;27.47;8.07;;;;;;;0.38;95.05;101877.91;5042112;28;20029;-63
2022/01/06 08:53:57;;;;;;;27.70;8.10;;;;;;;0.44;95.52;101891.59;5046177;28;20029;-59
2022/01/06 08:56:23;;;;;;;23.10;8.30;;;;;;;0.49;95.53;101892.25;5046683;28;20033;-59
2022/01/06 08:58:48;;;;;;;28.87;8.80;;;;;;;0.49;95.79;101884.41;5051066;28;20037;-63
2022/01/06 09:01:13;;;;;;;24.57;8.77;;;;;;;0.51;95.71;101890.41;5053418;28;20024;-63
2022/01/06 09:03:39;;;;;;;24.30;8.90;;;;;;;0.53;95.54;101886.81;5049715;28;20080;-63
2022/01/06 09:06:04;;;;;;;29.07;9.53;;;;;;;0.56;95.53;101890.19;5051417;28;20176;-63
2022/01/06 09:08:29;;;;;;;27.33;9.30;;;;;;;0.57;95.79;101895.34;5052935;28;20021;-63
2022/01/06 09:10:55;;;;;;;27.13;9.60;;;;;;;0.62;95.79;101898.59;5053289;28;20025;-63
2022/01/06 09:13:20;;;;;;;30.10;9.90;;;;;;;0.64;95.86;101899.38;5052428;28;20392;-63
2022/01/06 09:15:45;;;;;;;32.80;10.33;;;;;;;0.68;95.94;101900.06;5051789;28;20041;-63
2022/01/06 09:18:11;;;;;;;28.27;10.90;;;;;;;0.72;96.13;101892.94;5049048;28;20068;-62
2022/01/06 09:20:36;;;;;;;28.27;10.13;;;;;;;0.77;96.08;101898.81;5053395;28;20469;-63
2022/01/06 09:23:02;;;;;;;29.00;10.60;;;;;;;0.80;96.13;101896.88;5048682;28;20025;-63
2022/01/06 09:25:27;;;;;;;26.60;10.30;;;;;;;0.85;95.98;101906.28;5041599;28;20499;-61
2022/01/06 09:27:54;;;;;;;30.17;10.83;;;;;;;0.89;95.96;101908.69;5042711;28;20037;-63
2022/01/06 09:30:23;;;;;;;28.63;10.20;;;;;;;0.94;96.34;101901.47;5051060;28;20048;-62
2022/01/06 09:32:49;;;;;;;32.67;10.50;;;;;;;1.00;96.33;101907.34;5048680;28;20029;-63
2022/01/06 09:35:14;;;;;;;26.97;10.20;;;;;;;1.07;95.90;101919.19;5053251;28;20025;-63
2022/01/06 09:37:39;;;;;;;31.33;10.80;;;;;;;1.13;96.32;101925.91;5052265;28;20086;-63
2022/01/06 09:40:08;;;;;;;28.97;10.67;;;;;;;1.16;96.50;101921.38;5045121;28;20400;-62
2022/01/06 09:42:33;;;;;;;30.73;11.00;;;;;;;1.22;96.06;101920.22;5049012;28;20349;-63
2022/01/06 09:44:59;;;;;;;34.83;10.53;;;;;;;1.29;96.11;101923.41;5046430;28;20044;-63
2022/01/06 09:47:27;;;;;;;29.77;10.97;;;;;;;1.36;96.03;101926.53;5039755;28;20163;-63
2022/01/06 09:49:53;;;;;;;27.43;10.80;;;;;;;1.39;95.95;101918.56;5045694;28;20052;-63
2022/01/06 09:52:21;;;;;;;31.13;10.83;;;;;;;1.42;95.95;101921.88;5051292;28;20476;-63
2022/01/06 09:54:46;;;;;;;29.83;10.63;;;;;;;1.46;96.13;101917.34;5047902;28;20057;-63
2022/01/06 09:57:14;;;;;;;33.80;10.70;;;;;;;1.51;95.76;101930.16;5045002;28;20076;-63
2022/01/06 09:59:41;;;;;;;28.17;10.43;;;;;;;1.59;95.88;101933.28;5051962;28;20036;-63
2022/01/06 10:02:13;;;;;;;34.97;11.03;;;;;;;1.62;95.81;101927.88;5048781;28;20083;-62
2022/01/06 10:04:38;;;;;;;30.83;10.30;;;;;;;1.70;95.72;101930.97;5048515;28;20040;-63
2022/01/06 10:07:08;;;;;;;30.80;9.97;;;;;;;1.72;95.45;101929.13;5051417;28;20033;-62
2022/01/06 10:09:35;;;;;;;30.80;10.00;;;;;;;1.80;95.68;101920.03;5044257;28;20365;-63
2022/01/06 10:12:08;;;;;;;27.67;10.50;;;;;;;1.86;95.45;101930.19;5051743;28;20017;-63
2022/01/06 10:14:43;;;;;;;29.20;8.82;;;;;;;1.96;94.99;101925.34;5051476;28;20091;-63
2022/01/06 10:17:15;;;;;;;29.90;9.40;;;;;;;1.95;94.81;101923.66;5048429;28;20119;-63
2022/01/06 10:19:42;;;;;;;23.83;8.67;;;;;;;2.00;94.82;101919.91;5047564;28;20405;-63
2022/01/06 10:22:18;;;;;;;28.80;8.87;;;;;;;2.08;94.24;101923.88;5048569;28;20025;-63
2022/01/06 10:24:46;;;;;;;28.50;9.13;;;;;;;2.09;94.27;101920.34;5050563;28;20036;-63
2022/01/06 10:27:17;;;;;;;26.53;9.03;;;;;;;2.14;94.29;101921.78;5051559;28;20127;-63
2022/01/06 10:29:45;;;;;;;27.47;8.83;;;;;;;2.18;93.71;101919.88;5047404;28;20064;-63
2022/01/06 10:32:21;;;;;;;23.70;8.53;;;;;;;2.16;94.03;101919.09;5051393;28;20033;-63
2022/01/06 10:34:55;;;;;;;25.13;8.17;;;;;;;2.32;93.33;101918.28;5042757;28;20492;-63
2022/01/06 10:37:26;;;;;;;28.47;8.93;;;;;;;2.25;94.02;101910.78;5050744;28;20431;-63
2022/01/06 10:39:58;;;;;;;25.17;8.07;;;;;;;2.32;94.06;101915.69;5042732;28;20072;-63
2022/01/06 10:42:25;;;;;;;26.52;8.60;;;;;;;2.39;94.46;101917.03;5051131;28;20416;-63
2022/01/06 10:44:54;;;;;;;25.17;8.70;;;;;;;2.45;94.27;101915.84;5049807;28;20056;-63
2022/01/06 10:47:30;;;;;;;28.87;8.60;;;;;;;2.58;94.63;101921.28;5051696;28;20090;-63
2022/01/06 10:50:09;;;;;;;25.00;8.27;;;;;;;2.67;94.09;101915.56;5044811;28;20480;-63
2022/01/06 10:52:36;;;;;;;27.63;8.17;;;;;;;2.66;93.85;101911.28;5050178;28;20021;-62
2022/01/06 10:55:12;;;;;;;25.83;7.93;;;;;;;2.76;93.93;101915.06;5045750;28;20040;-63
2022/01/06 10:57:51;;;;;;;27.77;7.67;;;;;;;2.82;93.91;101913.91;5049807;28;20394;-63
2022/01/06 11:00:18;;;;;;;23.17;7.47;;;;;;;2.82;92.90;101908.66;5047595;28;20040;-63
2022/01/06 11:02:43;;;;;;;27.23;7.53;;;;;;;2.87;93.64;101916.25;5049982;28;20060;-63
2022/01/06 11:05:08;;;;;;;24.60;7.57;;;;;;;2.94;93.06;101912.38;5036653;28;20396;-63
2022/01/06 11:07:34;;;;;;;22.60;7.40;;;;;;;2.96;93.47;101905.25;5050505;28;20025;-63
2022/01/06 11:09:59;;;;;;;25.20;7.27;;;;;;;3.06;92.44;101906.44;5048480;28;20036;-63
2022/01/06 11:12:30;;;;;;;21.27;6.40;;;;;;;3.03;92.49;101901.38;5050803;28;20029;-63
2022/01/06 11:14:56;;;;;;;25.07;7.40;;;;;;;3.05;92.65;101903.91;5049097;28;20025;-63
2022/01/06 11:17:23;;;;;;;22.77;6.90;;;;;;;3.09;92.76;101901.03;5044940;28;20503;-63
2022/01/06 11:19:49;;;;;;;24.00;6.90;;;;;;;3.13;92.84;101895.59;5037531;28;20162;-63
2022/01/06 11:22:16;;;;;;;25.13;7.03;;;;;;;3.16;92.95;101892.84;5047676;28;20020;-63
2022/01/06 11:24:54;;;;;;;19.95;6.70;;;;;;;3.15;92.80;101888.53;5047449;28;20166;-63